createdAt,value
2023-01-29T00:00:28.247Z,4.85
2023-01-29T00:03:47.020Z,4.88
2023-01-29T00:06:15.148Z,4.90
2023-01-29T00:08:43.493Z,4.91
2023-01-29T00:11:13.792Z,4.93
2023-01-29T00:13:51.058Z,4.94
2023-01-29T00:16:22.566Z,4.94
2023-01-29T00:18:53.286Z,4.93
2023-01-29T00:22:22.109Z,4.90
2023-01-29T00:25:50.865Z,4.86
2023-01-29T00:29:19.628Z,4.86
2023-01-29T00:32:41.803Z,4.86
2023-01-29T00:35:41.466Z,4.91
2023-01-29T00:39:10.257Z,4.94
2023-01-29T00:42:36.108Z,4.98
2023-01-29T00:45:28.076Z,5.00
2023-01-29T00:48:56.907Z,5.03
2023-01-29T00:51:25.390Z,5.05
2023-01-29T00:53:54.725Z,5.05
2023-01-29T00:56:31.655Z,5.05
2023-01-29T00:59:50.458Z,5.04
2023-01-29T01:02:41.396Z,5.03
2023-01-29T01:05:18.418Z,5.00
2023-01-29T01:07:52.745Z,4.99
2023-01-29T01:10:58.037Z,4.99
2023-01-29T01:14:00.629Z,4.99
2023-01-29T01:17:26.143Z,4.99
2023-01-29T01:19:54.168Z,4.94
2023-01-29T01:22:23.481Z,4.93
2023-01-29T01:25:00.377Z,4.93
2023-01-29T01:27:32.408Z,4.94
2023-01-29T01:30:00.953Z,4.94
2023-01-29T01:32:49.466Z,4.94
2023-01-29T01:35:30.900Z,4.93
2023-01-29T01:39:01.251Z,4.93
2023-01-29T01:42:02.781Z,4.91
2023-01-29T01:45:39.558Z,4.88
2023-01-29T01:49:07.300Z,4.87
2023-01-29T01:52:15.327Z,4.86
2023-01-29T01:55:14.984Z,4.87
2023-01-29T01:58:43.766Z,4.87
2023-01-29T02:01:42.940Z,4.90
2023-01-29T02:04:51.944Z,4.93
2023-01-29T02:08:19.003Z,4.97
2023-01-29T02:11:20.321Z,5.00
2023-01-29T02:14:41.760Z,5.02
2023-01-29T02:18:09.388Z,5.03
2023-01-29T02:21:41.534Z,5.00
2023-01-29T02:24:57.574Z,5.01
2023-01-29T02:28:40.313Z,5.01
2023-01-29T02:31:53.688Z,5.00
2023-01-29T02:35:52.959Z,4.98
2023-01-29T02:38:43.941Z,4.97
2023-01-29T02:42:06.147Z,4.96
2023-01-29T02:44:57.486Z,4.96
2023-01-29T02:48:26.266Z,4.97
2023-01-29T02:51:48.728Z,4.99
2023-01-29T02:55:26.049Z,5.00
2023-01-29T02:58:54.614Z,4.97
2023-01-29T03:02:22.357Z,4.96
2023-01-29T03:05:46.649Z,4.94
2023-01-29T03:09:15.684Z,4.90
2023-01-29T03:12:56.433Z,4.87
2023-01-29T03:16:25.016Z,4.85
2023-01-29T03:19:56.350Z,4.84
2023-01-29T03:23:25.152Z,4.85
2023-01-29T03:26:52.463Z,4.85
2023-01-29T03:30:19.990Z,4.86
2023-01-29T03:33:48.770Z,4.85
2023-01-29T03:37:20.048Z,4.83
2023-01-29T03:40:41.806Z,4.79
2023-01-29T03:44:13.651Z,4.75
2023-01-29T03:47:45.006Z,4.73
2023-01-29T03:50:59.331Z,4.72
2023-01-29T03:54:31.538Z,4.71
2023-01-29T03:57:42.961Z,4.71
2023-01-29T04:01:17.896Z,4.72
2023-01-29T04:04:48.547Z,4.73
2023-01-29T04:08:10.099Z,4.70
2023-01-29T04:11:38.920Z,4.71
2023-01-29T04:15:07.757Z,4.68
2023-01-29T04:18:36.551Z,4.68
2023-01-29T04:22:05.259Z,4.67
2023-01-29T04:25:33.859Z,4.66
2023-01-29T04:29:08.698Z,4.67
2023-01-29T04:32:46.147Z,4.67
2023-01-29T04:36:36.012Z,4.66
2023-01-29T04:40:07.448Z,4.66
2023-01-29T04:43:37.232Z,4.64
2023-01-29T04:47:18.200Z,4.63
2023-01-29T04:51:05.460Z,4.61
2023-01-29T04:54:49.594Z,4.57
2023-01-29T04:58:36.254Z,4.53
2023-01-29T05:02:04.926Z,4.48
2023-01-29T05:05:33.541Z,4.45
2023-01-29T05:09:02.246Z,4.40
2023-01-29T05:12:13.627Z,4.39
2023-01-29T05:15:42.005Z,4.41
2023-01-29T05:19:10.682Z,4.43
2023-01-29T05:22:39.523Z,4.44
2023-01-29T05:26:06.977Z,4.45
2023-01-29T05:29:20.388Z,4.46
2023-01-29T05:32:49.240Z,4.48
2023-01-29T05:36:06.184Z,4.48
2023-01-29T05:39:35.617Z,4.45
2023-01-29T05:42:59.040Z,4.43
2023-01-29T05:46:33.779Z,4.40
2023-01-29T05:49:01.941Z,4.37
2023-01-29T05:51:30.217Z,4.36
2023-01-29T05:54:00.829Z,4.36
2023-01-29T05:56:29.228Z,4.36
2023-01-29T05:59:20.301Z,4.35
2023-01-29T06:02:02.740Z,4.31
2023-01-29T06:05:24.058Z,4.27
2023-01-29T06:08:47.037Z,4.24
2023-01-29T06:12:07.034Z,4.21
2023-01-29T06:15:35.819Z,4.18
2023-01-29T06:18:04.582Z,4.18
2023-01-29T06:20:35.812Z,4.18
2023-01-29T06:23:13.247Z,4.19
2023-01-29T06:25:41.924Z,4.19
2023-01-29T06:28:16.255Z,4.21
2023-01-29T06:31:22.133Z,4.24
2023-01-29T06:34:52.917Z,4.27
2023-01-29T06:38:21.701Z,4.27
2023-01-29T06:41:51.102Z,4.27
2023-01-29T06:45:08.945Z,4.25
2023-01-29T06:48:20.382Z,4.24
2023-01-29T06:50:51.846Z,4.24
2023-01-29T06:53:27.267Z,4.24
2023-01-29T06:55:55.559Z,4.24
2023-01-29T06:58:32.527Z,4.24
2023-01-29T07:01:50.242Z,4.25
2023-01-29T07:04:37.879Z,4.25
2023-01-29T07:07:58.138Z,4.26
2023-01-29T07:11:26.884Z,4.27
2023-01-29T07:14:55.619Z,4.29
2023-01-29T07:18:24.464Z,4.31
2023-01-29T07:21:38.954Z,4.30
2023-01-29T07:25:08.575Z,4.27
2023-01-29T07:28:37.394Z,4.26
2023-01-29T07:31:59.588Z,4.26
2023-01-29T07:34:31.231Z,4.26
2023-01-29T07:36:59.079Z,4.26
2023-01-29T07:39:36.723Z,4.25
2023-01-29T07:42:13.236Z,4.25
2023-01-29T07:45:05.030Z,4.23
2023-01-29T07:47:32.975Z,4.21
2023-01-29T07:50:45.526Z,4.20
2023-01-29T07:54:14.185Z,4.18
2023-01-29T07:57:44.277Z,4.20
2023-01-29T08:00:53.271Z,4.23
2023-01-29T08:04:03.471Z,4.25
2023-01-29T08:06:53.933Z,4.28
2023-01-29T08:09:25.541Z,4.29
2023-01-29T08:12:00.336Z,4.32
2023-01-29T08:14:54.449Z,4.36
2023-01-29T08:17:56.060Z,4.41
2023-01-29T08:21:25.998Z,4.44
2023-01-29T08:24:17.331Z,4.50
2023-01-29T08:27:01.833Z,4.55
2023-01-29T08:30:31.079Z,4.59
2023-01-29T08:33:39.154Z,4.66
2023-01-29T08:36:17.112Z,4.71
2023-01-29T08:38:58.801Z,4.74
2023-01-29T08:41:26.928Z,4.76
2023-01-29T08:44:04.519Z,4.78
2023-01-29T08:46:57.731Z,4.81
2023-01-29T08:50:26.584Z,4.81
2023-01-29T08:53:27.262Z,4.80
2023-01-29T08:56:48.551Z,4.78
2023-01-29T09:00:05.957Z,4.77
2023-01-29T09:03:34.774Z,4.80
2023-01-29T09:06:45.720Z,4.85
2023-01-29T09:10:14.692Z,4.87
2023-01-29T09:13:43.442Z,4.91
2023-01-29T09:16:52.150Z,4.99
2023-01-29T09:20:21.036Z,5.06
2023-01-29T09:23:27.296Z,5.11
2023-01-29T09:26:13.438Z,5.13
2023-01-29T09:29:33.052Z,5.15
2023-01-29T09:32:54.505Z,5.20
2023-01-29T09:36:23.494Z,5.25
2023-01-29T09:39:27.689Z,5.34
2023-01-29T09:42:51.974Z,5.38
2023-01-29T09:46:15.233Z,5.44
2023-01-29T09:49:19.813Z,5.51
2023-01-29T09:52:26.237Z,5.54
2023-01-29T09:55:41.180Z,5.59
2023-01-29T09:59:03.988Z,5.69
2023-01-29T10:02:04.645Z,5.77
2023-01-29T10:05:23.898Z,5.78
2023-01-29T10:08:33.480Z,5.80
2023-01-29T10:11:48.178Z,5.83
2023-01-29T10:15:40.512Z,5.83
2023-01-29T10:19:23.883Z,5.81
2023-01-29T10:22:49.784Z,5.88
2023-01-29T10:25:21.348Z,5.97
2023-01-29T10:28:18.708Z,6.04
2023-01-29T10:30:53.159Z,6.08
2023-01-29T10:34:07.305Z,6.13
2023-01-29T10:36:55.065Z,6.20
2023-01-29T10:39:26.569Z,6.30
2023-01-29T10:42:47.375Z,6.35
2023-01-29T10:45:41.751Z,6.40
2023-01-29T10:48:22.408Z,6.42
2023-01-29T10:51:47.601Z,6.44
2023-01-29T10:54:15.812Z,6.51
2023-01-29T10:56:43.989Z,6.64
2023-01-29T11:00:02.384Z,6.80
2023-01-29T11:02:34.699Z,7.01
2023-01-29T11:06:05.792Z,7.16
2023-01-29T11:08:42.915Z,7.34
2023-01-29T11:11:37.906Z,7.47
2023-01-29T11:14:32.036Z,7.62
2023-01-29T11:18:00.803Z,7.78
2023-01-29T11:20:34.834Z,7.91
2023-01-29T11:23:03.300Z,8.04
2023-01-29T11:26:32.177Z,8.14
2023-01-29T11:29:52.803Z,8.26
2023-01-29T11:32:51.113Z,8.30
2023-01-29T11:35:42.596Z,8.33
2023-01-29T11:39:17.573Z,8.31
2023-01-29T11:42:35.062Z,8.24
2023-01-29T11:45:52.296Z,8.20
2023-01-29T11:48:52.247Z,8.18
2023-01-29T11:51:54.748Z,8.19
2023-01-29T11:54:29.193Z,8.18
2023-01-29T11:57:07.276Z,8.20
2023-01-29T12:00:00.905Z,8.19
2023-01-29T12:02:37.133Z,8.19
2023-01-29T12:05:21.200Z,8.21
2023-01-29T12:07:54.190Z,8.22
2023-01-29T12:10:41.146Z,8.27
2023-01-29T12:13:23.844Z,8.28
2023-01-29T12:16:09.504Z,8.28
2023-01-29T12:18:54.586Z,8.27
2023-01-29T12:21:52.839Z,8.26
2023-01-29T12:24:58.137Z,8.26
2023-01-29T12:27:58.452Z,8.30
2023-01-29T12:30:59.462Z,8.33
2023-01-29T12:34:23.539Z,8.39
2023-01-29T12:38:01.079Z,8.52
2023-01-29T12:41:21.078Z,8.63
2023-01-29T12:44:18.630Z,8.69
2023-01-29T12:46:55.244Z,8.83
2023-01-29T12:49:39.878Z,8.95
2023-01-29T12:53:17.643Z,8.97
2023-01-29T12:56:18.159Z,8.85
2023-01-29T12:59:45.169Z,8.79
2023-01-29T13:03:02.835Z,8.84
2023-01-29T13:06:15.524Z,8.95
2023-01-29T13:09:27.723Z,9.05
2023-01-29T13:12:59.441Z,9.11
2023-01-29T13:15:51.552Z,9.16
2023-01-29T13:18:50.264Z,9.16
2023-01-29T13:21:44.529Z,9.17
2023-01-29T13:24:31.791Z,9.10
2023-01-29T13:27:13.084Z,9.01
2023-01-29T13:29:47.395Z,8.93
2023-01-29T13:32:25.120Z,8.85
2023-01-29T13:35:06.507Z,8.79
2023-01-29T13:37:42.193Z,8.73
2023-01-29T13:40:25.736Z,8.79
2023-01-29T13:42:58.934Z,8.79
2023-01-29T13:45:38.088Z,8.79
2023-01-29T13:48:42.906Z,8.85
2023-01-29T13:51:20.950Z,8.85
2023-01-29T13:54:08.052Z,8.87
2023-01-29T13:56:59.451Z,8.97
2023-01-29T13:59:56.643Z,9.02
2023-01-29T14:03:01.763Z,9.01
2023-01-29T14:05:30.388Z,8.95
2023-01-29T14:08:02.402Z,8.92
2023-01-29T14:10:35.494Z,8.85
2023-01-29T14:13:03.566Z,8.80
2023-01-29T14:15:35.551Z,8.77
2023-01-29T14:18:04.209Z,8.73
2023-01-29T14:20:56.706Z,8.69
2023-01-29T14:23:30.596Z,8.67
2023-01-29T14:26:02.071Z,8.64
2023-01-29T14:28:34.471Z,8.60
2023-01-29T14:31:10.000Z,8.61
2023-01-29T14:34:24.255Z,8.62
2023-01-29T14:37:00.623Z,8.64
2023-01-29T14:39:54.245Z,8.61
2023-01-29T14:43:23.288Z,8.59
2023-01-29T14:46:58.006Z,8.59
2023-01-29T14:50:28.227Z,8.62
2023-01-29T14:54:05.775Z,8.64
2023-01-29T14:57:05.664Z,8.66
2023-01-29T14:59:38.107Z,8.69
2023-01-29T15:02:37.267Z,8.70
2023-01-29T15:05:14.037Z,8.68
2023-01-29T15:08:01.588Z,8.65
2023-01-29T15:10:46.831Z,8.63
2023-01-29T15:14:18.786Z,8.65
2023-01-29T15:18:03.037Z,8.70
2023-01-29T15:21:31.757Z,8.72
2023-01-29T15:25:06.436Z,8.75
2023-01-29T15:27:42.148Z,8.73
2023-01-29T15:30:23.720Z,8.73
2023-01-29T15:33:06.345Z,8.70
2023-01-29T15:35:51.638Z,8.67
2023-01-29T15:38:27.028Z,8.62
2023-01-29T15:41:31.902Z,8.59
2023-01-29T15:44:01.416Z,8.56
2023-01-29T15:46:58.958Z,8.55
2023-01-29T15:49:52.152Z,8.51
2023-01-29T15:52:36.334Z,8.48
2023-01-29T15:55:07.444Z,8.44
2023-01-29T15:57:40.780Z,8.40
2023-01-29T16:00:25.048Z,8.35
2023-01-29T16:02:53.968Z,8.30
2023-01-29T16:06:07.098Z,8.25
2023-01-29T16:08:36.701Z,8.17
2023-01-29T16:11:25.645Z,8.11
2023-01-29T16:14:11.039Z,8.05
2023-01-29T16:17:19.613Z,8.00
2023-01-29T16:20:40.224Z,7.95
2023-01-29T16:23:37.645Z,7.90
2023-01-29T16:26:30.081Z,7.86
2023-01-29T16:29:34.059Z,7.82
2023-01-29T16:32:45.823Z,7.76
2023-01-29T16:36:17.661Z,7.71
2023-01-29T16:39:49.487Z,7.65
2023-01-29T16:42:49.199Z,7.59
2023-01-29T16:46:25.275Z,7.55
2023-01-29T16:50:06.207Z,7.50
2023-01-29T16:53:43.846Z,7.44
2023-01-29T16:56:25.172Z,7.37
2023-01-29T16:59:54.451Z,7.33
2023-01-29T17:02:32.941Z,7.30
2023-01-29T17:05:22.502Z,7.27
2023-01-29T17:08:22.163Z,7.24
2023-01-29T17:11:31.178Z,7.20
2023-01-29T17:14:19.317Z,7.17
2023-01-29T17:17:17.584Z,7.15
2023-01-29T17:20:35.139Z,7.12
2023-01-29T17:23:03.331Z,7.10
2023-01-29T17:25:43.864Z,7.07
2023-01-29T17:28:19.752Z,7.04
2023-01-29T17:31:06.127Z,7.02
2023-01-29T17:34:07.599Z,6.98
2023-01-29T17:36:42.007Z,6.94
2023-01-29T17:39:23.016Z,6.91
2023-01-29T17:42:24.205Z,6.87
2023-01-29T17:44:52.658Z,6.83
2023-01-29T17:47:24.107Z,6.79
2023-01-29T17:49:55.139Z,6.77
2023-01-29T17:52:26.150Z,6.73
2023-01-29T17:55:18.749Z,6.71
2023-01-29T17:58:26.708Z,6.68
2023-01-29T18:01:55.629Z,6.64
2023-01-29T18:05:16.220Z,6.61
2023-01-29T18:08:38.324Z,6.57
2023-01-29T18:11:41.121Z,6.55
2023-01-29T18:14:59.804Z,6.51
2023-01-29T18:18:01.979Z,6.48
2023-01-29T18:21:31.443Z,6.44
2023-01-29T18:24:32.120Z,6.41
2023-01-29T18:28:00.917Z,6.38
2023-01-29T18:31:14.894Z,6.35
2023-01-29T18:34:43.914Z,6.31
2023-01-29T18:37:26.162Z,6.27
2023-01-29T18:40:37.529Z,6.23
2023-01-29T18:44:06.251Z,6.19
2023-01-29T18:47:25.305Z,6.15
2023-01-29T18:50:36.795Z,6.11
2023-01-29T18:53:38.094Z,6.09
2023-01-29T18:57:13.223Z,6.07
2023-01-29T18:59:31.203Z,6.06
2023-01-29T19:02:04.210Z,6.06
2023-01-29T19:04:35.256Z,6.07
2023-01-29T19:07:04.866Z,6.09
2023-01-29T19:09:36.544Z,6.10
2023-01-29T19:12:10.109Z,6.12
2023-01-29T19:14:38.254Z,6.15
2023-01-29T19:17:06.613Z,6.18
2023-01-29T19:19:37.903Z,6.21
2023-01-29T19:22:06.232Z,6.24
2023-01-29T19:24:38.920Z,6.27
2023-01-29T19:27:07.203Z,6.30
2023-01-29T19:29:38.762Z,6.33
2023-01-29T19:32:08.871Z,6.36
2023-01-29T19:34:37.431Z,6.39
2023-01-29T19:37:18.705Z,6.40
2023-01-29T19:39:47.409Z,6.39
2023-01-29T19:42:16.038Z,6.37
2023-01-29T19:45:13.820Z,6.35
2023-01-29T19:48:31.113Z,6.32
2023-01-29T19:51:41.018Z,6.26
2023-01-29T19:54:14.434Z,6.21
2023-01-29T19:57:22.799Z,6.17
2023-01-29T19:59:51.010Z,6.12
2023-01-29T20:02:24.849Z,6.09
2023-01-29T20:04:53.464Z,6.06
2023-01-29T20:07:24.577Z,6.03
2023-01-29T20:09:52.851Z,6.00
2023-01-29T20:12:21.384Z,5.96
2023-01-29T20:15:07.564Z,5.92
2023-01-29T20:18:14.981Z,5.88
2023-01-29T20:21:47.017Z,5.82
2023-01-29T20:24:30.392Z,5.76
2023-01-29T20:27:04.334Z,5.72
2023-01-29T20:30:11.307Z,5.69
2023-01-29T20:33:28.123Z,5.63
2023-01-29T20:36:33.813Z,5.58
2023-01-29T20:39:56.544Z,5.52
2023-01-29T20:42:24.857Z,5.47
2023-01-29T20:45:36.752Z,5.44
2023-01-29T20:48:05.090Z,5.41
2023-01-29T20:50:36.394Z,5.41
2023-01-29T20:53:20.719Z,5.44
2023-01-29T20:56:37.388Z,5.49
2023-01-29T20:59:10.044Z,5.56
2023-01-29T21:01:38.561Z,5.61
2023-01-29T21:04:12.116Z,5.64
2023-01-29T21:06:40.867Z,5.67
2023-01-29T21:09:09.342Z,5.70
2023-01-29T21:11:40.751Z,5.72
2023-01-29T21:14:12.610Z,5.74
2023-01-29T21:16:40.981Z,5.74
2023-01-29T21:19:09.087Z,5.72
2023-01-29T21:22:09.433Z,5.68
2023-01-29T21:24:37.768Z,5.61
2023-01-29T21:27:37.381Z,5.55
2023-01-29T21:30:18.357Z,5.50
2023-01-29T21:32:49.606Z,5.47
2023-01-29T21:35:56.859Z,5.43
2023-01-29T21:38:25.418Z,5.39
2023-01-29T21:41:52.676Z,5.38
2023-01-29T21:44:27.154Z,5.34
2023-01-29T21:47:12.542Z,5.30
2023-01-29T21:50:10.811Z,5.27
2023-01-29T21:53:19.491Z,5.25
2023-01-29T21:56:08.298Z,5.23
2023-01-29T21:59:12.042Z,5.24
2023-01-29T22:02:09.933Z,5.24
2023-01-29T22:04:45.064Z,5.24
2023-01-29T22:07:44.349Z,5.24
2023-01-29T22:10:17.337Z,5.25
2023-01-29T22:13:26.451Z,5.24
2023-01-29T22:16:22.254Z,5.24
2023-01-29T22:18:53.827Z,5.23
2023-01-29T22:21:23.541Z,5.23
2023-01-29T22:24:12.071Z,5.22
2023-01-29T22:27:40.783Z,5.21
2023-01-29T22:30:50.267Z,5.20
2023-01-29T22:33:18.713Z,5.19
2023-01-29T22:36:47.745Z,5.18
2023-01-29T22:39:22.067Z,5.16
2023-01-29T22:41:50.736Z,5.15
2023-01-29T22:44:31.324Z,5.14
2023-01-29T22:47:02.583Z,5.13
2023-01-29T22:49:34.031Z,5.12
2023-01-29T22:52:10.353Z,5.12
2023-01-29T22:54:43.605Z,5.12
2023-01-29T22:57:16.067Z,5.14
2023-01-29T22:59:56.513Z,5.17
2023-01-29T23:02:46.813Z,5.18
2023-01-29T23:05:35.649Z,5.19
2023-01-29T23:08:44.203Z,5.19
2023-01-29T23:11:41.865Z,5.18
2023-01-29T23:14:57.922Z,5.21
2023-01-29T23:17:35.369Z,5.25
2023-01-29T23:20:12.838Z,5.30
2023-01-29T23:23:11.341Z,5.35
2023-01-29T23:26:05.955Z,5.41
2023-01-29T23:29:00.607Z,5.46
2023-01-29T23:31:29.255Z,5.51
2023-01-29T23:34:13.837Z,5.55
2023-01-29T23:36:43.993Z,5.59
2023-01-29T23:39:12.727Z,5.61
2023-01-29T23:41:46.856Z,5.63
2023-01-29T23:44:47.230Z,5.65
2023-01-29T23:47:25.705Z,5.66
2023-01-29T23:49:54.251Z,5.67
2023-01-29T23:52:32.488Z,5.66
2023-01-29T23:55:00.983Z,5.64
2023-01-29T23:57:49.378Z,5.64
